createdAt,value
2023-04-07T00:01:17.968Z,100690.47
2023-04-07T00:03:48.556Z,100696.69
2023-04-07T00:06:20.600Z,100698.59
2023-04-07T00:08:49.561Z,100687.47
2023-04-07T00:11:20.878Z,100684.81
2023-04-07T00:13:49.768Z,100680.13
2023-04-07T00:16:21.024Z,100675.09
2023-04-07T00:18:49.868Z,100687.53
2023-04-07T00:21:21.283Z,100694.59
2023-04-07T00:23:55.003Z,100696.41
2023-04-07T00:26:24.759Z,100711.63
2023-04-07T00:28:53.617Z,100716.91
2023-04-07T00:31:23.945Z,100737.22
2023-04-07T00:33:53.922Z,100751.91
2023-04-07T00:36:25.137Z,100760.09
2023-04-07T00:38:55.083Z,100757.31
2023-04-07T00:41:24.896Z,100789.75
2023-04-07T00:43:53.887Z,100809.13
2023-04-07T00:46:25.680Z,100823.38
2023-04-07T00:48:56.575Z,100830.47
2023-04-07T00:51:26.006Z,100847.16
2023-04-07T00:53:58.110Z,100833.53
2023-04-07T00:56:31.939Z,100840.53
2023-04-07T00:59:05.359Z,100841.81
2023-04-07T01:01:42.646Z,100847.03
2023-04-07T01:04:33.000Z,100852.75
2023-04-07T01:07:51.416Z,100857.16
2023-04-07T01:10:29.266Z,100860.84
2023-04-07T01:13:24.425Z,100871.81
2023-04-07T01:16:03.054Z,100864.97
2023-04-07T01:18:37.673Z,100862.66
2023-04-07T01:21:18.316Z,100867.53
2023-04-07T01:24:22.504Z,100877.97
2023-04-07T01:26:53.349Z,100869.50
2023-04-07T01:29:35.911Z,100866.66
2023-04-07T01:32:08.828Z,100874.88
2023-04-07T01:34:40.504Z,100873.66
2023-04-07T01:37:11.519Z,100864.88
2023-04-07T01:39:43.686Z,100869.34
2023-04-07T01:42:13.558Z,100856.72
2023-04-07T01:44:44.835Z,100860.69
2023-04-07T01:47:16.325Z,100872.44
2023-04-07T01:49:49.143Z,100876.38
2023-04-07T01:52:18.984Z,100889.09
2023-04-07T01:54:50.062Z,100878.72
2023-04-07T01:57:24.835Z,100874.28
2023-04-07T02:00:05.258Z,100878.19
2023-04-07T02:02:51.938Z,100885.66
2023-04-07T02:05:25.437Z,100883.25
2023-04-07T02:08:03.282Z,100889.41
2023-04-07T02:10:40.764Z,100910.94
2023-04-07T02:13:14.406Z,100920.56
2023-04-07T02:15:46.914Z,100919.88
2023-04-07T02:18:24.444Z,100931.63
2023-04-07T02:20:55.690Z,100939.41
2023-04-07T02:23:25.888Z,100943.22
2023-04-07T02:26:03.411Z,100945.34
2023-04-07T02:28:32.937Z,100932.75
2023-04-07T02:31:05.203Z,100944.72
2023-04-07T02:33:36.196Z,100951.19
2023-04-07T02:36:05.553Z,100956.63
2023-04-07T02:38:36.054Z,100955.38
2023-04-07T02:41:09.448Z,100951.09
2023-04-07T02:43:40.840Z,100954.28
2023-04-07T02:46:12.887Z,100964.19
2023-04-07T02:48:46.018Z,100941.94
2023-04-07T02:51:18.385Z,100949.13
2023-04-07T02:53:51.009Z,100957.44
2023-04-07T02:56:21.508Z,100971.72
2023-04-07T02:58:51.908Z,100965.72
2023-04-07T03:01:22.143Z,100979.59
2023-04-07T03:03:52.968Z,100985.56
2023-04-07T03:06:29.008Z,100998.38
2023-04-07T03:09:18.275Z,101005.53
2023-04-07T03:11:50.092Z,101010.56
2023-04-07T03:14:21.056Z,101011.25
2023-04-07T03:16:52.820Z,101001.53
2023-04-07T03:19:24.636Z,100997.84
2023-04-07T03:21:57.885Z,101002.28
2023-04-07T03:24:36.606Z,101028.44
2023-04-07T03:27:06.478Z,101028.97
2023-04-07T03:29:44.810Z,101023.44
2023-04-07T03:32:17.078Z,101034.81
2023-04-07T03:34:46.026Z,101025.72
2023-04-07T03:37:17.929Z,101018.94
2023-04-07T03:39:50.349Z,101010.56
2023-04-07T03:42:31.669Z,101002.06
2023-04-07T03:45:07.655Z,101002.69
2023-04-07T03:47:42.535Z,101009.31
2023-04-07T03:50:13.269Z,101026.88
2023-04-07T03:52:53.872Z,101037.13
2023-04-07T03:55:32.986Z,101036.28
2023-04-07T03:58:13.930Z,101038.91
2023-04-07T04:00:50.312Z,101043.31
2023-04-07T04:03:26.940Z,101043.19
2023-04-07T04:06:25.427Z,101041.22
2023-04-07T04:09:02.325Z,101031.81
2023-04-07T04:11:39.943Z,101048.69
2023-04-07T04:14:10.087Z,101054.75
2023-04-07T04:16:42.939Z,101056.94
2023-04-07T04:19:32.650Z,101066.97
2023-04-07T04:22:10.476Z,101063.63
2023-04-07T04:24:49.774Z,101041.38
2023-04-07T04:27:24.353Z,101041.19
2023-04-07T04:30:04.515Z,101040.16
2023-04-07T04:32:44.349Z,101045.38
2023-04-07T04:35:14.436Z,101050.53
2023-04-07T04:38:00.230Z,101058.25
2023-04-07T04:40:31.852Z,101046.38
2023-04-07T04:43:08.385Z,101059.91
2023-04-07T04:45:43.617Z,101061.75
2023-04-07T04:48:18.453Z,101066.97
2023-04-07T04:50:49.958Z,101066.34
2023-04-07T04:53:25.557Z,101066.78
2023-04-07T04:56:04.595Z,101073.16
2023-04-07T04:58:48.035Z,101085.25
2023-04-07T05:01:34.223Z,101087.34
2023-04-07T05:04:12.217Z,101095.44
2023-04-07T05:06:49.515Z,101109.75
2023-04-07T05:09:23.883Z,101109.16
2023-04-07T05:11:53.768Z,101091.88
2023-04-07T05:14:28.692Z,101096.25
2023-04-07T05:17:07.792Z,101079.38
2023-04-07T05:19:38.183Z,101083.88
2023-04-07T05:22:18.077Z,101087.63
2023-04-07T05:24:53.002Z,101095.19
2023-04-07T05:27:22.314Z,101095.69
2023-04-07T05:30:02.040Z,101105.28
2023-04-07T05:32:38.534Z,101098.03
2023-04-07T05:35:21.687Z,101102.22
2023-04-07T05:38:00.966Z,101107.84
2023-04-07T05:40:35.670Z,101119.56
2023-04-07T05:43:10.152Z,101123.28
2023-04-07T05:45:44.249Z,101130.25
2023-04-07T05:48:14.304Z,101113.03
2023-04-07T05:50:48.344Z,101108.09
2023-04-07T05:53:21.209Z,101122.00
2023-04-07T05:55:49.952Z,101123.91
2023-04-07T05:58:32.499Z,101121.91
2023-04-07T06:01:04.275Z,101125.28
2023-04-07T06:03:34.747Z,101134.19
2023-04-07T06:06:28.882Z,101144.00
2023-04-07T06:09:02.171Z,101146.28
2023-04-07T06:11:33.729Z,101135.97
2023-04-07T06:14:04.667Z,101148.19
2023-04-07T06:16:35.851Z,101145.13
2023-04-07T06:19:09.380Z,101149.50
2023-04-07T06:21:38.578Z,101143.81
2023-04-07T06:24:10.140Z,101131.59
2023-04-07T06:26:45.313Z,101109.09
2023-04-07T06:29:18.075Z,101113.50
2023-04-07T06:31:50.748Z,101107.97
2023-04-07T06:34:22.727Z,101103.59
2023-04-07T06:36:53.659Z,101088.41
2023-04-07T06:39:24.156Z,101104.88
2023-04-07T06:41:54.228Z,101117.25
2023-04-07T06:44:25.003Z,101108.56
2023-04-07T06:46:57.481Z,101096.56
2023-04-07T06:49:32.897Z,101086.75
2023-04-07T06:52:03.859Z,101087.41
2023-04-07T06:54:35.928Z,101087.78
2023-04-07T06:57:07.939Z,101081.59
2023-04-07T06:59:37.453Z,101083.19
2023-04-07T07:02:09.737Z,101079.59
2023-04-07T07:04:41.693Z,101073.78
2023-04-07T07:07:12.360Z,101061.94
2023-04-07T07:09:43.780Z,101061.53
2023-04-07T07:12:16.871Z,101056.31
2023-04-07T07:14:45.987Z,101043.63
2023-04-07T07:17:20.126Z,101049.31
2023-04-07T07:19:50.319Z,101052.63
2023-04-07T07:22:22.797Z,101049.84
2023-04-07T07:24:54.273Z,101053.72
2023-04-07T07:27:25.797Z,101049.19
2023-04-07T07:30:00.668Z,101057.72
2023-04-07T07:32:33.836Z,101058.00
2023-04-07T07:35:08.496Z,101055.63
2023-04-07T07:37:37.734Z,101070.78
2023-04-07T07:40:09.596Z,101071.44
2023-04-07T07:42:41.877Z,101063.78
2023-04-07T07:45:13.576Z,101072.50
2023-04-07T07:47:44.936Z,101089.28
2023-04-07T07:50:14.584Z,101080.75
2023-04-07T07:52:45.114Z,101080.41
2023-04-07T07:55:14.313Z,101098.19
2023-04-07T07:57:45.622Z,101108.44
2023-04-07T08:00:17.846Z,101112.19
2023-04-07T08:02:50.028Z,101131.84
2023-04-07T08:05:22.067Z,101131.66
2023-04-07T08:07:57.383Z,101121.22
2023-04-07T08:10:32.498Z,101109.63
2023-04-07T08:13:04.513Z,101126.75
2023-04-07T08:15:38.637Z,101129.38
2023-04-07T08:18:16.953Z,101137.03
2023-04-07T08:20:46.355Z,101132.66
2023-04-07T08:23:17.761Z,101128.06
2023-04-07T08:25:49.133Z,101135.03
2023-04-07T08:28:20.310Z,101132.44
2023-04-07T08:30:52.466Z,101122.22
2023-04-07T08:33:22.334Z,101128.81
2023-04-07T08:35:53.825Z,101144.25
2023-04-07T08:38:23.868Z,101147.78
2023-04-07T08:41:03.737Z,101138.81
2023-04-07T08:43:34.549Z,101140.28
2023-04-07T08:46:05.770Z,101142.03
2023-04-07T08:48:40.395Z,101134.97
2023-04-07T08:51:17.323Z,101132.53
2023-04-07T08:53:53.115Z,101131.69
2023-04-07T08:56:24.475Z,101126.56
2023-04-07T08:58:56.074Z,101124.84
2023-04-07T09:01:30.976Z,101127.47
2023-04-07T09:04:06.250Z,101138.44
2023-04-07T09:06:41.600Z,101135.88
2023-04-07T09:09:13.460Z,101142.91
2023-04-07T09:11:46.025Z,101155.38
2023-04-07T09:14:20.838Z,101150.81
2023-04-07T09:16:53.810Z,101141.66
2023-04-07T09:19:31.801Z,101133.53
2023-04-07T09:22:04.118Z,101133.75
2023-04-07T09:24:35.940Z,101138.25
2023-04-07T09:27:17.211Z,101133.97
2023-04-07T09:29:51.781Z,101139.84
2023-04-07T09:32:40.555Z,101144.03
2023-04-07T09:35:14.206Z,101140.72
2023-04-07T09:37:46.003Z,101148.34
2023-04-07T09:40:33.028Z,101151.84
2023-04-07T09:43:06.110Z,101145.28
2023-04-07T09:45:37.669Z,101150.28
2023-04-07T09:48:22.305Z,101157.88
2023-04-07T09:51:09.095Z,101170.81
2023-04-07T09:53:50.415Z,101187.16
2023-04-07T09:56:25.687Z,101198.53
2023-04-07T09:58:57.514Z,101200.97
2023-04-07T10:01:36.945Z,101192.44
2023-04-07T10:04:08.525Z,101184.31
2023-04-07T10:06:39.999Z,101181.44
2023-04-07T10:09:12.479Z,101180.66
2023-04-07T10:11:44.005Z,101183.72
2023-04-07T10:14:14.008Z,101181.84
2023-04-07T10:16:45.885Z,101192.69
2023-04-07T10:19:22.103Z,101207.69
2023-04-07T10:21:55.910Z,101219.66
2023-04-07T10:24:52.834Z,101226.78
2023-04-07T10:27:37.184Z,101247.38
2023-04-07T10:30:15.661Z,101239.56
2023-04-07T10:32:54.380Z,101249.97
2023-04-07T10:35:25.986Z,101262.59
2023-04-07T10:38:19.162Z,101275.72
2023-04-07T10:40:52.639Z,101275.81
2023-04-07T10:43:49.506Z,101262.72
2023-04-07T10:46:22.587Z,101246.78
2023-04-07T10:49:13.481Z,101240.31
2023-04-07T10:51:45.263Z,101239.59
2023-04-07T10:54:30.770Z,101245.31
2023-04-07T10:57:17.401Z,101235.63
2023-04-07T11:00:12.003Z,101260.56
2023-04-07T11:02:44.281Z,101246.28
2023-04-07T11:05:25.387Z,101257.53
2023-04-07T11:08:03.910Z,101246.28
2023-04-07T11:10:33.595Z,101246.22
2023-04-07T11:13:09.720Z,101272.22
2023-04-07T11:15:42.304Z,101260.59
2023-04-07T11:18:17.592Z,101276.75
2023-04-07T11:20:50.329Z,101292.00
2023-04-07T11:23:25.627Z,101298.06
2023-04-07T11:26:05.887Z,101314.16
2023-04-07T11:28:38.623Z,101316.13
2023-04-07T11:31:15.619Z,101311.59
2023-04-07T11:33:54.796Z,101293.00
2023-04-07T11:36:44.560Z,101294.56
2023-04-07T11:39:23.988Z,101298.75
2023-04-07T11:41:54.326Z,101302.03
2023-04-07T11:44:37.420Z,101305.63
2023-04-07T11:47:16.171Z,101318.59
2023-04-07T11:49:50.465Z,101328.13
2023-04-07T11:52:21.776Z,101330.72
2023-04-07T11:54:52.208Z,101332.16
2023-04-07T11:57:32.039Z,101333.88
2023-04-07T12:00:14.262Z,101342.19
2023-04-07T12:02:47.009Z,101359.16
2023-04-07T12:05:18.254Z,101362.81
2023-04-07T12:08:01.960Z,101349.13
2023-04-07T12:10:37.572Z,101348.41
2023-04-07T12:13:16.013Z,101370.69
2023-04-07T12:15:48.412Z,101386.25
2023-04-07T12:18:21.812Z,101402.75
2023-04-07T12:20:54.664Z,101392.41
2023-04-07T12:23:27.541Z,101391.00
2023-04-07T12:26:04.997Z,101370.72
2023-04-07T12:28:36.084Z,101384.44
2023-04-07T12:31:06.626Z,101388.94
2023-04-07T12:33:37.881Z,101389.44
2023-04-07T12:36:12.021Z,101389.53
2023-04-07T12:38:45.611Z,101387.75
2023-04-07T12:41:18.811Z,101380.69
2023-04-07T12:43:50.432Z,101383.38
2023-04-07T12:46:23.341Z,101387.75
2023-04-07T12:48:54.715Z,101384.88
2023-04-07T12:51:25.894Z,101378.66
2023-04-07T12:53:56.097Z,101364.69
2023-04-07T12:56:26.169Z,101370.41
2023-04-07T12:58:56.546Z,101368.09
2023-04-07T13:01:29.280Z,101352.16
2023-04-07T13:04:04.184Z,101350.84
2023-04-07T13:06:36.043Z,101332.44
2023-04-07T13:09:06.175Z,101350.28
2023-04-07T13:16:11.033Z,101362.06
2023-04-07T13:19:14.093Z,101361.84
2023-04-07T13:22:18.401Z,101379.06
2023-04-07T13:26:20.915Z,101394.78
2023-04-07T13:28:50.785Z,101410.34
2023-04-07T13:31:22.464Z,101429.06
2023-04-07T13:33:53.976Z,101432.38
2023-04-07T13:36:24.268Z,101445.56
2023-04-07T13:38:54.269Z,101452.91
2023-04-07T13:41:25.325Z,101446.75
2023-04-07T13:43:56.002Z,101447.56
2023-04-07T13:46:28.971Z,101445.91
2023-04-07T13:49:05.871Z,101447.16
2023-04-07T13:52:02.339Z,101445.47
2023-04-07T13:54:37.623Z,101446.06
2023-04-07T13:57:09.655Z,101445.94
2023-04-07T13:59:38.644Z,101446.97
2023-04-07T14:02:10.058Z,101435.19
2023-04-07T14:04:41.537Z,101429.13
2023-04-07T14:07:12.242Z,101423.69
2023-04-07T14:09:44.207Z,101427.75
2023-04-07T14:12:16.057Z,101436.84
2023-04-07T14:14:46.887Z,101436.84
2023-04-07T14:17:17.695Z,101439.97
2023-04-07T14:20:05.446Z,101443.59
2023-04-07T14:22:34.202Z,101433.31
2023-04-07T14:25:06.804Z,101443.28
2023-04-07T14:27:39.972Z,101451.50
2023-04-07T14:30:12.197Z,101446.03
2023-04-07T14:32:44.663Z,101452.28
2023-04-07T14:35:15.481Z,101468.00
2023-04-07T14:37:45.983Z,101466.19
2023-04-07T14:40:21.369Z,101460.47
2023-04-07T14:43:06.841Z,101479.41
2023-04-07T14:45:41.760Z,101475.69
2023-04-07T14:48:13.584Z,101471.38
2023-04-07T14:50:56.309Z,101483.63
2023-04-07T14:53:38.369Z,101480.28
2023-04-07T14:56:10.719Z,101484.16
2023-04-07T14:58:44.123Z,101482.66
2023-04-07T15:01:25.231Z,101488.69
2023-04-07T15:03:55.215Z,101501.81
2023-04-07T15:06:30.696Z,101495.75
2023-04-07T15:09:16.690Z,101490.69
2023-04-07T15:11:49.310Z,101488.66
2023-04-07T15:19:37.834Z,101473.47
2023-04-07T15:22:10.473Z,101450.03
2023-04-07T15:24:45.110Z,101452.53
2023-04-07T15:27:18.762Z,101468.31
2023-04-07T15:29:50.827Z,101463.94
2023-04-07T15:32:33.987Z,101473.16
2023-04-07T15:35:12.796Z,101493.00
2023-04-07T15:42:16.131Z,101497.28
2023-04-07T15:44:52.803Z,101491.03
2023-04-07T15:47:25.115Z,101489.56
2023-04-07T15:49:54.698Z,101494.19
2023-04-07T15:52:29.789Z,101490.63
2023-04-07T15:55:02.447Z,101493.03
2023-04-07T15:57:33.831Z,101492.16
2023-04-07T16:00:06.507Z,101480.78
2023-04-07T16:02:40.312Z,101505.28
2023-04-07T16:05:10.380Z,101507.78
2023-04-07T16:07:41.647Z,101504.94
2023-04-07T16:10:13.746Z,101508.44
2023-04-07T16:12:44.871Z,101504.25
2023-04-07T16:15:18.441Z,101495.03
2023-04-07T16:17:54.095Z,101487.25
2023-04-07T16:20:25.528Z,101486.97
2023-04-07T16:23:02.631Z,101471.69
2023-04-07T16:25:58.418Z,101469.84
2023-04-07T16:28:34.182Z,101462.66
2023-04-07T16:31:10.096Z,101455.16
2023-04-07T16:33:45.743Z,101454.47
2023-04-07T16:36:17.443Z,101441.38
2023-04-07T16:38:48.308Z,101423.41
2023-04-07T16:41:22.125Z,101421.38
2023-04-07T16:43:54.920Z,101410.03
2023-04-07T16:46:36.507Z,101397.06
2023-04-07T16:49:06.264Z,101412.84
2023-04-07T16:51:37.343Z,101412.13
2023-04-07T16:54:09.346Z,101393.13
2023-04-07T16:56:38.828Z,101394.38
2023-04-07T16:59:10.493Z,101417.22
2023-04-07T17:01:42.710Z,101401.91
2023-04-07T17:04:13.926Z,101385.09
2023-04-07T17:06:45.324Z,101382.97
2023-04-07T17:09:17.091Z,101386.50
2023-04-07T17:11:48.243Z,101398.53
2023-04-07T17:14:17.677Z,101397.88
2023-04-07T17:16:51.792Z,101407.34
2023-04-07T17:19:26.027Z,101416.25
2023-04-07T17:21:55.979Z,101423.13
2023-04-07T17:24:31.972Z,101431.31
2023-04-07T17:27:07.503Z,101427.44
2023-04-07T17:29:38.116Z,101434.03
2023-04-07T17:32:09.593Z,101432.22
2023-04-07T17:34:40.386Z,101437.94
2023-04-07T17:37:10.143Z,101436.25
2023-04-07T17:39:39.755Z,101441.38
2023-04-07T17:42:12.048Z,101443.44
2023-04-07T17:44:43.424Z,101443.56
2023-04-07T17:47:14.373Z,101430.34
2023-04-07T17:49:44.641Z,101433.97
2023-04-07T17:52:14.951Z,101446.06
2023-04-07T17:54:45.731Z,101447.91
2023-04-07T17:57:17.062Z,101441.00
2023-04-07T17:59:49.865Z,101445.22
2023-04-07T18:02:20.132Z,101434.34
2023-04-07T18:04:49.662Z,101428.50
2023-04-07T18:07:18.601Z,101433.16
2023-04-07T18:09:49.887Z,101416.84
2023-04-07T18:12:20.539Z,101415.97
2023-04-07T18:14:51.636Z,101413.84
2023-04-07T18:17:20.799Z,101415.78
2023-04-07T18:19:52.940Z,101405.34
2023-04-07T18:22:23.607Z,101411.81
2023-04-07T18:24:54.533Z,101411.47
2023-04-07T18:27:25.950Z,101392.38
2023-04-07T18:30:00.861Z,101396.75
2023-04-07T18:32:31.841Z,101394.38
2023-04-07T18:35:02.820Z,101390.16
2023-04-07T18:37:33.798Z,101387.00
2023-04-07T18:40:04.273Z,101391.34
2023-04-07T18:42:34.945Z,101390.38
2023-04-07T18:45:05.951Z,101393.25
2023-04-07T18:47:36.674Z,101406.66
2023-04-07T18:50:06.861Z,101419.88
2023-04-07T18:52:38.124Z,101434.00
2023-04-07T18:55:12.506Z,101444.88
2023-04-07T18:57:42.202Z,101459.38
2023-04-07T19:00:16.742Z,101462.00
2023-04-07T19:02:46.759Z,101445.75
2023-04-07T19:05:16.861Z,101437.63
2023-04-07T19:07:49.703Z,101446.94
2023-04-07T19:10:18.416Z,101427.50
2023-04-07T19:12:48.269Z,101421.38
2023-04-07T19:15:17.998Z,101414.66
2023-04-07T19:17:56.198Z,101395.31
2023-04-07T19:20:25.441Z,101386.53
2023-04-07T19:23:01.029Z,101382.97
2023-04-07T19:26:03.916Z,101373.22
2023-04-07T19:28:34.496Z,101359.59
2023-04-07T19:31:36.349Z,101351.31
2023-04-07T19:34:18.287Z,101339.63
2023-04-07T19:36:48.081Z,101333.97
2023-04-07T19:39:17.474Z,101335.63
2023-04-07T19:41:47.562Z,101334.31
2023-04-07T19:44:17.328Z,101331.16
2023-04-07T19:46:46.339Z,101319.41
2023-04-07T19:49:20.958Z,101320.41
2023-04-07T19:51:55.236Z,101324.53
2023-04-07T19:54:24.859Z,101313.84
2023-04-07T19:57:18.505Z,101299.91
2023-04-07T19:59:53.201Z,101311.19
2023-04-07T20:02:22.905Z,101318.53
2023-04-07T20:04:53.446Z,101326.56
2023-04-07T20:07:23.578Z,101319.75
2023-04-07T20:09:53.320Z,101295.56
2023-04-07T20:12:22.512Z,101295.06
2023-04-07T20:14:52.444Z,101289.38
2023-04-07T20:17:22.222Z,101283.69
2023-04-07T20:19:55.235Z,101295.25
2023-04-07T20:22:25.119Z,101306.50
2023-04-07T20:24:53.844Z,101327.13
2023-04-07T20:27:24.303Z,101340.25
2023-04-07T20:29:53.120Z,101336.38
2023-04-07T20:32:21.935Z,101337.72
2023-04-07T20:34:53.461Z,101321.78
2023-04-07T20:37:23.834Z,101352.81
2023-04-07T20:39:53.545Z,101343.94
2023-04-07T20:42:24.870Z,101338.09
2023-04-07T20:53:51.089Z,101332.72
2023-04-07T20:56:33.706Z,101316.00
2023-04-07T21:01:13.913Z,101311.44
2023-04-07T21:04:53.266Z,101294.22
2023-04-07T21:07:33.127Z,101277.88
2023-04-07T21:10:32.409Z,101298.69
2023-04-07T21:13:19.014Z,101303.81
2023-04-07T21:16:06.140Z,101288.91
2023-04-07T21:18:53.047Z,101283.88
2023-04-07T21:21:48.989Z,101282.59
2023-04-07T21:24:21.816Z,101290.69
2023-04-07T21:27:04.246Z,101295.78
2023-04-07T21:29:48.572Z,101281.34
2023-04-07T21:32:27.744Z,101274.72
2023-04-07T21:35:37.783Z,101277.41
2023-04-07T21:38:46.115Z,101271.38
2023-04-07T21:41:23.427Z,101266.84
2023-04-07T21:44:47.588Z,101258.75
2023-04-07T21:47:38.150Z,101265.75
2023-04-07T21:50:17.519Z,101271.84
2023-04-07T21:52:57.858Z,101264.31
2023-04-07T21:59:04.522Z,101258.09
2023-04-07T22:17:36.937Z,101286.69
2023-04-07T22:20:12.761Z,101267.81
2023-04-07T22:22:48.576Z,101266.81
2023-04-07T22:26:30.376Z,101273.03
2023-04-07T22:29:06.876Z,101269.81
2023-04-07T22:31:38.356Z,101267.34
2023-04-07T22:34:16.421Z,101280.44
2023-04-07T23:51:02.239Z,101291.16
2023-04-07T23:53:36.514Z,101296.22
2023-04-07T23:56:08.702Z,101291.53
2023-04-07T23:58:37.504Z,101286.84
